sensor_id;sensor_type;location;lat;lon;timestamp;P1;durP1;ratioP1;P2;durP2;ratioP2
173;SDS011;75;48.784;9.364;2022-11-20T00:01:29;28.73;;;18.30;;
173;SDS011;75;48.784;9.364;2022-11-20T00:03:57;31.80;;;19.13;;
173;SDS011;75;48.784;9.364;2022-11-20T00:06:25;27.40;;;17.73;;
173;SDS011;75;48.784;9.364;2022-11-20T00:08:54;28.60;;;17.53;;
173;SDS011;75;48.784;9.364;2022-11-20T00:11:22;31.10;;;18.03;;
173;SDS011;75;48.784;9.364;2022-11-20T00:13:51;31.57;;;18.53;;
173;SDS011;75;48.784;9.364;2022-11-20T00:16:19;26.07;;;16.33;;
173;SDS011;75;48.784;9.364;2022-11-20T00:18:47;27.63;;;17.00;;
173;SDS011;75;48.784;9.364;2022-11-20T00:21:16;24.83;;;15.40;;
173;SDS011;75;48.784;9.364;2022-11-20T00:23:43;24.83;;;15.77;;
173;SDS011;75;48.784;9.364;2022-11-20T00:26:12;25.20;;;15.93;;
173;SDS011;75;48.784;9.364;2022-11-20T00:28:40;23.00;;;15.00;;
173;SDS011;75;48.784;9.364;2022-11-20T00:31:08;21.27;;;14.13;;
173;SDS011;75;48.784;9.364;2022-11-20T00:33:36;23.80;;;14.40;;
173;SDS011;75;48.784;9.364;2022-11-20T00:36:07;21.33;;;13.97;;
173;SDS011;75;48.784;9.364;2022-11-20T00:38:35;25.63;;;15.50;;
173;SDS011;75;48.784;9.364;2022-11-20T00:41:04;22.23;;;14.23;;
173;SDS011;75;48.784;9.364;2022-11-20T00:43:32;23.03;;;14.87;;
173;SDS011;75;48.784;9.364;2022-11-20T00:46:03;27.07;;;15.57;;
173;SDS011;75;48.784;9.364;2022-11-20T00:48:31;20.93;;;13.60;;
173;SDS011;75;48.784;9.364;2022-11-20T00:50:58;20.90;;;12.80;;
173;SDS011;75;48.784;9.364;2022-11-20T00:53:26;20.07;;;13.40;;
173;SDS011;75;48.784;9.364;2022-11-20T00:55:57;21.67;;;12.83;;
173;SDS011;75;48.784;9.364;2022-11-20T00:58:25;18.70;;;11.67;;
173;SDS011;75;48.784;9.364;2022-11-20T01:03:35;22.67;;;12.77;;
173;SDS011;75;48.784;9.364;2022-11-20T01:06:04;15.27;;;10.40;;
173;SDS011;75;48.784;9.364;2022-11-20T01:08:32;14.70;;;10.10;;
173;SDS011;75;48.784;9.364;2022-11-20T01:11:01;14.53;;;9.30;;
173;SDS011;75;48.784;9.364;2022-11-20T01:13:29;16.10;;;10.60;;
173;SDS011;75;48.784;9.364;2022-11-20T01:16:10;15.67;;;10.13;;
173;SDS011;75;48.784;9.364;2022-11-20T01:18:38;14.03;;;8.80;;
173;SDS011;75;48.784;9.364;2022-11-20T01:21:14;13.10;;;9.37;;
173;SDS011;75;48.784;9.364;2022-11-20T01:23:42;12.50;;;8.67;;
173;SDS011;75;48.784;9.364;2022-11-20T01:26:14;11.43;;;8.33;;
173;SDS011;75;48.784;9.364;2022-11-20T01:28:41;12.43;;;8.10;;
173;SDS011;75;48.784;9.364;2022-11-20T01:33:39;12.80;;;8.20;;
173;SDS011;75;48.784;9.364;2022-11-20T01:36:07;13.10;;;8.37;;
173;SDS011;75;48.784;9.364;2022-11-20T01:38:35;10.40;;;7.47;;
173;SDS011;75;48.784;9.364;2022-11-20T01:41:02;10.20;;;6.90;;
173;SDS011;75;48.784;9.364;2022-11-20T01:43:30;9.80;;;6.70;;
173;SDS011;75;48.784;9.364;2022-11-20T01:48:36;9.53;;;6.63;;
173;SDS011;75;48.784;9.364;2022-11-20T01:51:03;8.07;;;6.60;;
173;SDS011;75;48.784;9.364;2022-11-20T01:53:32;8.90;;;6.10;;
173;SDS011;75;48.784;9.364;2022-11-20T01:56:01;8.47;;;6.30;;
173;SDS011;75;48.784;9.364;2022-11-20T01:58:30;8.30;;;6.30;;
173;SDS011;75;48.784;9.364;2022-11-20T02:00:59;11.33;;;7.10;;
173;SDS011;75;48.784;9.364;2022-11-20T02:03:26;8.90;;;6.97;;
173;SDS011;75;48.784;9.364;2022-11-20T02:06:11;9.30;;;6.63;;
173;SDS011;75;48.784;9.364;2022-11-20T02:08:39;8.57;;;6.53;;
173;SDS011;75;48.784;9.364;2022-11-20T02:11:07;9.23;;;6.70;;
173;SDS011;75;48.784;9.364;2022-11-20T02:13:34;9.33;;;6.90;;
173;SDS011;75;48.784;9.364;2022-11-20T02:16:14;10.03;;;6.80;;
173;SDS011;75;48.784;9.364;2022-11-20T02:21:56;9.30;;;6.93;;
173;SDS011;75;48.784;9.364;2022-11-20T02:24:26;8.93;;;6.40;;
173;SDS011;75;48.784;9.364;2022-11-20T02:26:59;12.53;;;7.00;;
173;SDS011;75;48.784;9.364;2022-11-20T02:32:23;10.70;;;6.93;;
173;SDS011;75;48.784;9.364;2022-11-20T02:34:51;8.63;;;6.63;;
173;SDS011;75;48.784;9.364;2022-11-20T02:37:18;8.97;;;6.17;;
173;SDS011;75;48.784;9.364;2022-11-20T02:39:47;9.93;;;6.60;;
173;SDS011;75;48.784;9.364;2022-11-20T02:42:15;11.10;;;6.33;;
173;SDS011;75;48.784;9.364;2022-11-20T02:44:42;7.87;;;5.90;;
173;SDS011;75;48.784;9.364;2022-11-20T02:47:09;6.90;;;5.80;;
173;SDS011;75;48.784;9.364;2022-11-20T02:49:37;9.70;;;6.47;;
173;SDS011;75;48.784;9.364;2022-11-20T02:52:04;9.63;;;6.60;;
173;SDS011;75;48.784;9.364;2022-11-20T02:54:32;8.87;;;6.70;;
173;SDS011;75;48.784;9.364;2022-11-20T02:57:00;10.70;;;6.73;;
173;SDS011;75;48.784;9.364;2022-11-20T02:59:27;7.20;;;5.97;;
173;SDS011;75;48.784;9.364;2022-11-20T03:01:55;8.80;;;6.67;;
173;SDS011;75;48.784;9.364;2022-11-20T03:04:22;7.90;;;6.33;;
173;SDS011;75;48.784;9.364;2022-11-20T03:06:49;11.23;;;7.40;;
173;SDS011;75;48.784;9.364;2022-11-20T03:09:17;9.93;;;7.30;;
173;SDS011;75;48.784;9.364;2022-11-20T03:11:44;12.27;;;7.60;;
173;SDS011;75;48.784;9.364;2022-11-20T03:14:11;9.70;;;7.33;;
173;SDS011;75;48.784;9.364;2022-11-20T03:16:38;9.73;;;7.70;;
173;SDS011;75;48.784;9.364;2022-11-20T03:19:06;11.87;;;8.10;;
173;SDS011;75;48.784;9.364;2022-11-20T03:21:33;11.63;;;7.53;;
173;SDS011;75;48.784;9.364;2022-11-20T03:24:01;10.87;;;7.50;;
173;SDS011;75;48.784;9.364;2022-11-20T03:26:29;9.50;;;7.67;;
173;SDS011;75;48.784;9.364;2022-11-20T03:28:57;9.60;;;7.90;;
173;SDS011;75;48.784;9.364;2022-11-20T03:31:26;9.63;;;6.87;;
173;SDS011;75;48.784;9.364;2022-11-20T03:33:53;9.17;;;6.90;;
173;SDS011;75;48.784;9.364;2022-11-20T03:36:21;9.70;;;6.90;;
173;SDS011;75;48.784;9.364;2022-11-20T03:38:48;9.63;;;7.40;;
173;SDS011;75;48.784;9.364;2022-11-20T03:41:29;8.60;;;6.37;;
173;SDS011;75;48.784;9.364;2022-11-20T03:44:00;8.73;;;7.23;;
173;SDS011;75;48.784;9.364;2022-11-20T03:46:28;12.37;;;8.50;;
173;SDS011;75;48.784;9.364;2022-11-20T03:48:55;9.90;;;7.60;;
173;SDS011;75;48.784;9.364;2022-11-20T03:51:24;10.33;;;7.20;;
173;SDS011;75;48.784;9.364;2022-11-20T03:53:52;11.40;;;7.70;;
173;SDS011;75;48.784;9.364;2022-11-20T03:56:21;10.23;;;6.70;;
173;SDS011;75;48.784;9.364;2022-11-20T03:58:49;8.53;;;6.40;;
173;SDS011;75;48.784;9.364;2022-11-20T04:01:18;9.80;;;6.70;;
173;SDS011;75;48.784;9.364;2022-11-20T04:03:46;10.03;;;7.30;;
173;SDS011;75;48.784;9.364;2022-11-20T04:06:15;9.33;;;7.10;;
173;SDS011;75;48.784;9.364;2022-11-20T04:08:43;8.40;;;6.67;;
173;SDS011;75;48.784;9.364;2022-11-20T04:11:14;9.90;;;6.90;;
173;SDS011;75;48.784;9.364;2022-11-20T04:13:42;8.40;;;6.40;;
173;SDS011;75;48.784;9.364;2022-11-20T04:16:12;9.23;;;6.53;;
173;SDS011;75;48.784;9.364;2022-11-20T04:18:39;7.73;;;6.27;;
173;SDS011;75;48.784;9.364;2022-11-20T04:21:07;9.80;;;6.70;;
173;SDS011;75;48.784;9.364;2022-11-20T04:23:34;9.40;;;6.97;;
173;SDS011;75;48.784;9.364;2022-11-20T04:26:03;10.90;;;6.80;;
173;SDS011;75;48.784;9.364;2022-11-20T04:28:30;9.73;;;6.87;;
173;SDS011;75;48.784;9.364;2022-11-20T04:31:01;7.40;;;6.10;;
173;SDS011;75;48.784;9.364;2022-11-20T04:33:28;7.40;;;5.80;;
173;SDS011;75;48.784;9.364;2022-11-20T04:35:59;9.27;;;6.33;;
173;SDS011;75;48.784;9.364;2022-11-20T04:38:27;9.93;;;6.83;;
173;SDS011;75;48.784;9.364;2022-11-20T04:41:00;8.80;;;6.77;;
173;SDS011;75;48.784;9.364;2022-11-20T04:43:28;8.67;;;6.87;;
173;SDS011;75;48.784;9.364;2022-11-20T04:45:56;9.90;;;6.97;;
173;SDS011;75;48.784;9.364;2022-11-20T04:48:25;9.20;;;7.20;;
173;SDS011;75;48.784;9.364;2022-11-20T04:50:52;8.27;;;6.23;;
173;SDS011;75;48.784;9.364;2022-11-20T04:53:20;9.57;;;6.97;;
173;SDS011;75;48.784;9.364;2022-11-20T04:55:48;8.23;;;6.67;;
173;SDS011;75;48.784;9.364;2022-11-20T04:58:15;9.77;;;6.40;;
173;SDS011;75;48.784;9.364;2022-11-20T05:00:43;9.40;;;6.00;;
173;SDS011;75;48.784;9.364;2022-11-20T05:03:10;9.33;;;6.30;;
173;SDS011;75;48.784;9.364;2022-11-20T05:05:37;9.90;;;6.30;;
173;SDS011;75;48.784;9.364;2022-11-20T05:08:05;9.40;;;6.20;;
173;SDS011;75;48.784;9.364;2022-11-20T05:10:32;9.77;;;6.23;;
173;SDS011;75;48.784;9.364;2022-11-20T05:12:59;7.57;;;5.80;;
173;SDS011;75;48.784;9.364;2022-11-20T05:15:27;11.23;;;6.87;;
173;SDS011;75;48.784;9.364;2022-11-20T05:17:54;10.53;;;6.20;;
173;SDS011;75;48.784;9.364;2022-11-20T05:20:21;8.70;;;6.10;;
173;SDS011;75;48.784;9.364;2022-11-20T05:22:49;9.60;;;6.20;;
173;SDS011;75;48.784;9.364;2022-11-20T05:25:16;7.70;;;6.00;;
173;SDS011;75;48.784;9.364;2022-11-20T05:27:43;8.10;;;6.33;;
173;SDS011;75;48.784;9.364;2022-11-20T05:30:11;8.13;;;6.60;;
173;SDS011;75;48.784;9.364;2022-11-20T05:32:38;7.13;;;5.90;;
173;SDS011;75;48.784;9.364;2022-11-20T05:35:06;8.17;;;5.97;;
173;SDS011;75;48.784;9.364;2022-11-20T05:37:33;9.50;;;6.30;;
173;SDS011;75;48.784;9.364;2022-11-20T05:40:01;7.27;;;5.37;;
173;SDS011;75;48.784;9.364;2022-11-20T05:42:30;6.90;;;5.63;;
173;SDS011;75;48.784;9.364;2022-11-20T05:45:01;8.00;;;5.90;;
173;SDS011;75;48.784;9.364;2022-11-20T05:47:31;9.57;;;5.43;;
173;SDS011;75;48.784;9.364;2022-11-20T05:49:58;9.40;;;6.37;;
173;SDS011;75;48.784;9.364;2022-11-20T05:52:29;9.13;;;5.93;;
173;SDS011;75;48.784;9.364;2022-11-20T05:54:56;9.50;;;5.77;;
173;SDS011;75;48.784;9.364;2022-11-20T05:57:24;17.87;;;10.07;;
173;SDS011;75;48.784;9.364;2022-11-20T05:59:51;12.70;;;7.30;;
173;SDS011;75;48.784;9.364;2022-11-20T06:02:19;10.23;;;7.37;;
173;SDS011;75;48.784;9.364;2022-11-20T06:04:46;9.37;;;6.83;;
173;SDS011;75;48.784;9.364;2022-11-20T06:07:13;7.67;;;5.50;;
173;SDS011;75;48.784;9.364;2022-11-20T06:09:41;7.70;;;5.43;;
173;SDS011;75;48.784;9.364;2022-11-20T06:12:08;7.07;;;5.40;;
173;SDS011;75;48.784;9.364;2022-11-20T06:14:35;8.50;;;5.23;;
173;SDS011;75;48.784;9.364;2022-11-20T06:17:03;7.00;;;5.20;;
173;SDS011;75;48.784;9.364;2022-11-20T06:19:30;8.70;;;5.27;;
173;SDS011;75;48.784;9.364;2022-11-20T06:21:57;12.47;;;8.80;;
173;SDS011;75;48.784;9.364;2022-11-20T06:24:25;12.60;;;9.40;;
173;SDS011;75;48.784;9.364;2022-11-20T06:26:52;15.87;;;11.60;;
173;SDS011;75;48.784;9.364;2022-11-20T06:29:19;13.83;;;7.37;;
173;SDS011;75;48.784;9.364;2022-11-20T06:31:47;8.20;;;6.60;;
173;SDS011;75;48.784;9.364;2022-11-20T06:34:14;7.67;;;6.30;;
173;SDS011;75;48.784;9.364;2022-11-20T06:36:41;9.70;;;6.87;;
173;SDS011;75;48.784;9.364;2022-11-20T06:39:09;7.33;;;6.00;;
173;SDS011;75;48.784;9.364;2022-11-20T06:41:36;8.27;;;6.00;;
173;SDS011;75;48.784;9.364;2022-11-20T06:44:04;8.10;;;6.63;;
173;SDS011;75;48.784;9.364;2022-11-20T06:46:32;7.90;;;5.70;;
173;SDS011;75;48.784;9.364;2022-11-20T06:48:59;6.63;;;5.40;;
173;SDS011;75;48.784;9.364;2022-11-20T06:51:26;7.50;;;5.90;;
173;SDS011;75;48.784;9.364;2022-11-20T06:53:54;8.20;;;6.10;;
173;SDS011;75;48.784;9.364;2022-11-20T06:56:21;7.70;;;4.90;;
173;SDS011;75;48.784;9.364;2022-11-20T06:58:48;8.80;;;5.30;;
173;SDS011;75;48.784;9.364;2022-11-20T07:01:16;6.40;;;5.20;;
173;SDS011;75;48.784;9.364;2022-11-20T07:03:43;8.23;;;5.60;;
173;SDS011;75;48.784;9.364;2022-11-20T07:06:11;11.70;;;5.67;;
173;SDS011;75;48.784;9.364;2022-11-20T07:08:38;8.10;;;5.70;;
173;SDS011;75;48.784;9.364;2022-11-20T07:11:06;6.70;;;5.07;;
173;SDS011;75;48.784;9.364;2022-11-20T07:13:34;7.97;;;6.00;;
173;SDS011;75;48.784;9.364;2022-11-20T07:16:05;12.37;;;7.70;;
173;SDS011;75;48.784;9.364;2022-11-20T07:18:33;7.90;;;6.13;;
173;SDS011;75;48.784;9.364;2022-11-20T07:21:01;9.40;;;5.93;;
173;SDS011;75;48.784;9.364;2022-11-20T07:23:28;8.90;;;7.40;;
173;SDS011;75;48.784;9.364;2022-11-20T07:25:56;6.43;;;5.33;;
173;SDS011;75;48.784;9.364;2022-11-20T07:28:23;7.93;;;5.67;;
173;SDS011;75;48.784;9.364;2022-11-20T07:30:51;8.27;;;5.53;;
173;SDS011;75;48.784;9.364;2022-11-20T07:33:19;7.63;;;6.00;;
173;SDS011;75;48.784;9.364;2022-11-20T07:35:46;7.73;;;6.03;;
173;SDS011;75;48.784;9.364;2022-11-20T07:38:13;7.57;;;5.40;;
173;SDS011;75;48.784;9.364;2022-11-20T07:40:41;8.57;;;6.10;;
173;SDS011;75;48.784;9.364;2022-11-20T07:43:08;8.87;;;5.80;;
173;SDS011;75;48.784;9.364;2022-11-20T07:45:36;7.03;;;5.70;;
173;SDS011;75;48.784;9.364;2022-11-20T07:48:03;7.30;;;5.23;;
173;SDS011;75;48.784;9.364;2022-11-20T07:50:30;6.97;;;5.20;;
173;SDS011;75;48.784;9.364;2022-11-20T07:53:04;7.13;;;4.90;;
173;SDS011;75;48.784;9.364;2022-11-20T07:55:32;8.07;;;5.10;;
173;SDS011;75;48.784;9.364;2022-11-20T07:57:59;8.37;;;5.40;;
173;SDS011;75;48.784;9.364;2022-11-20T08:00:26;6.57;;;5.27;;
173;SDS011;75;48.784;9.364;2022-11-20T08:02:54;6.17;;;5.00;;
173;SDS011;75;48.784;9.364;2022-11-20T08:05:21;6.13;;;4.67;;
173;SDS011;75;48.784;9.364;2022-11-20T08:07:49;7.10;;;5.10;;
173;SDS011;75;48.784;9.364;2022-11-20T08:10:16;5.57;;;4.50;;
173;SDS011;75;48.784;9.364;2022-11-20T08:12:45;7.07;;;5.00;;
173;SDS011;75;48.784;9.364;2022-11-20T08:15:31;6.17;;;4.47;;
173;SDS011;75;48.784;9.364;2022-11-20T08:18:08;7.70;;;5.20;;
173;SDS011;75;48.784;9.364;2022-11-20T08:20:37;6.50;;;4.87;;
173;SDS011;75;48.784;9.364;2022-11-20T08:23:05;7.70;;;4.97;;
173;SDS011;75;48.784;9.364;2022-11-20T08:25:36;6.20;;;4.30;;
173;SDS011;75;48.784;9.364;2022-11-20T08:28:04;9.00;;;6.20;;
173;SDS011;75;48.784;9.364;2022-11-20T08:30:32;7.77;;;5.30;;
173;SDS011;75;48.784;9.364;2022-11-20T08:33:00;6.30;;;5.10;;
173;SDS011;75;48.784;9.364;2022-11-20T08:35:28;13.37;;;11.23;;
173;SDS011;75;48.784;9.364;2022-11-20T08:37:55;12.00;;;9.73;;
173;SDS011;75;48.784;9.364;2022-11-20T08:40:23;7.00;;;5.93;;
173;SDS011;75;48.784;9.364;2022-11-20T08:42:50;8.50;;;6.27;;
173;SDS011;75;48.784;9.364;2022-11-20T08:45:18;7.63;;;5.37;;
173;SDS011;75;48.784;9.364;2022-11-20T08:47:46;6.23;;;4.27;;
173;SDS011;75;48.784;9.364;2022-11-20T08:50:14;7.03;;;5.30;;
173;SDS011;75;48.784;9.364;2022-11-20T08:52:42;6.50;;;4.73;;
173;SDS011;75;48.784;9.364;2022-11-20T08:55:09;7.40;;;6.10;;
173;SDS011;75;48.784;9.364;2022-11-20T08:57:37;7.60;;;5.03;;
173;SDS011;75;48.784;9.364;2022-11-20T09:00:06;7.37;;;5.03;;
173;SDS011;75;48.784;9.364;2022-11-20T09:02:33;5.87;;;4.50;;
173;SDS011;75;48.784;9.364;2022-11-20T09:05:01;6.10;;;5.13;;
173;SDS011;75;48.784;9.364;2022-11-20T09:07:29;5.77;;;4.43;;
173;SDS011;75;48.784;9.364;2022-11-20T09:09:56;6.90;;;4.93;;
173;SDS011;75;48.784;9.364;2022-11-20T09:12:24;7.70;;;5.50;;
173;SDS011;75;48.784;9.364;2022-11-20T09:14:51;6.27;;;4.57;;
173;SDS011;75;48.784;9.364;2022-11-20T09:17:18;8.00;;;5.10;;
173;SDS011;75;48.784;9.364;2022-11-20T09:19:46;6.50;;;4.80;;
173;SDS011;75;48.784;9.364;2022-11-20T09:22:14;6.13;;;4.53;;
173;SDS011;75;48.784;9.364;2022-11-20T09:24:41;6.30;;;5.17;;
173;SDS011;75;48.784;9.364;2022-11-20T09:27:09;10.43;;;4.20;;
173;SDS011;75;48.784;9.364;2022-11-20T09:29:36;6.77;;;4.33;;
173;SDS011;75;48.784;9.364;2022-11-20T09:32:03;7.33;;;3.93;;
173;SDS011;75;48.784;9.364;2022-11-20T09:34:31;6.17;;;4.23;;
173;SDS011;75;48.784;9.364;2022-11-20T09:36:58;6.90;;;5.10;;
173;SDS011;75;48.784;9.364;2022-11-20T09:39:26;6.63;;;4.03;;
173;SDS011;75;48.784;9.364;2022-11-20T09:44:25;5.70;;;4.70;;
173;SDS011;75;48.784;9.364;2022-11-20T09:47:07;5.90;;;3.27;;
173;SDS011;75;48.784;9.364;2022-11-20T09:52:22;4.67;;;3.40;;
173;SDS011;75;48.784;9.364;2022-11-20T09:54:51;4.90;;;3.80;;
173;SDS011;75;48.784;9.364;2022-11-20T09:57:20;5.50;;;3.80;;
173;SDS011;75;48.784;9.364;2022-11-20T09:59:56;4.97;;;4.00;;
173;SDS011;75;48.784;9.364;2022-11-20T10:05:15;3.80;;;3.00;;
173;SDS011;75;48.784;9.364;2022-11-20T10:10:49;4.37;;;2.93;;
173;SDS011;75;48.784;9.364;2022-11-20T10:18:39;4.70;;;3.30;;
173;SDS011;75;48.784;9.364;2022-11-20T10:21:21;3.40;;;2.40;;
173;SDS011;75;48.784;9.364;2022-11-20T10:26:26;7.60;;;4.97;;
173;SDS011;75;48.784;9.364;2022-11-20T10:31:46;7.57;;;5.67;;
173;SDS011;75;48.784;9.364;2022-11-20T10:36:44;3.40;;;2.73;;
173;SDS011;75;48.784;9.364;2022-11-20T10:39:25;2.90;;;2.10;;
173;SDS011;75;48.784;9.364;2022-11-20T10:41:54;3.40;;;2.70;;
173;SDS011;75;48.784;9.364;2022-11-20T10:44:26;5.93;;;2.70;;
173;SDS011;75;48.784;9.364;2022-11-20T10:47:13;3.30;;;2.60;;
173;SDS011;75;48.784;9.364;2022-11-20T10:49:42;3.10;;;2.10;;
173;SDS011;75;48.784;9.364;2022-11-20T10:54:47;4.23;;;2.40;;
173;SDS011;75;48.784;9.364;2022-11-20T11:02:34;5.60;;;4.40;;
173;SDS011;75;48.784;9.364;2022-11-20T11:07:48;5.87;;;4.00;;
173;SDS011;75;48.784;9.364;2022-11-20T11:10:17;3.63;;;3.10;;
173;SDS011;75;48.784;9.364;2022-11-20T11:12:45;5.40;;;3.50;;
173;SDS011;75;48.784;9.364;2022-11-20T11:15:24;3.97;;;2.50;;
173;SDS011;75;48.784;9.364;2022-11-20T11:17:52;7.43;;;3.10;;
173;SDS011;75;48.784;9.364;2022-11-20T11:20:23;4.40;;;2.80;;
173;SDS011;75;48.784;9.364;2022-11-20T11:22:51;4.20;;;2.50;;
173;SDS011;75;48.784;9.364;2022-11-20T11:25:24;3.80;;;2.73;;
173;SDS011;75;48.784;9.364;2022-11-20T11:27:52;3.60;;;2.50;;
173;SDS011;75;48.784;9.364;2022-11-20T11:30:21;7.50;;;2.93;;
173;SDS011;75;48.784;9.364;2022-11-20T11:32:49;3.10;;;2.50;;
173;SDS011;75;48.784;9.364;2022-11-20T11:35:26;8.60;;;7.10;;
173;SDS011;75;48.784;9.364;2022-11-20T11:38:01;3.53;;;2.80;;
173;SDS011;75;48.784;9.364;2022-11-20T11:40:29;5.03;;;4.23;;
173;SDS011;75;48.784;9.364;2022-11-20T11:42:59;7.17;;;5.60;;
173;SDS011;75;48.784;9.364;2022-11-20T11:45:28;7.93;;;5.80;;
173;SDS011;75;48.784;9.364;2022-11-20T11:47:56;9.10;;;5.87;;
173;SDS011;75;48.784;9.364;2022-11-20T11:50:25;6.97;;;4.50;;
173;SDS011;75;48.784;9.364;2022-11-20T11:52:56;5.10;;;3.53;;
173;SDS011;75;48.784;9.364;2022-11-20T11:56:09;7.80;;;5.33;;
173;SDS011;75;48.784;9.364;2022-11-20T12:00:54;10.23;;;3.80;;
173;SDS011;75;48.784;9.364;2022-11-20T12:03:34;5.20;;;3.60;;
173;SDS011;75;48.784;9.364;2022-11-20T12:06:12;5.73;;;4.50;;
173;SDS011;75;48.784;9.364;2022-11-20T12:08:44;6.80;;;5.10;;
173;SDS011;75;48.784;9.364;2022-11-20T12:11:26;8.30;;;5.77;;
173;SDS011;75;48.784;9.364;2022-11-20T12:14:01;7.00;;;4.70;;
173;SDS011;75;48.784;9.364;2022-11-20T12:16:32;5.00;;;3.93;;
173;SDS011;75;48.784;9.364;2022-11-20T12:19:02;33.37;;;19.57;;
173;SDS011;75;48.784;9.364;2022-11-20T12:27:05;7.50;;;6.50;;
173;SDS011;75;48.784;9.364;2022-11-20T12:49:05;6.20;;;3.73;;
173;SDS011;75;48.784;9.364;2022-11-20T12:51:37;7.40;;;4.20;;
173;SDS011;75;48.784;9.364;2022-11-20T12:56:50;10.80;;;7.07;;
173;SDS011;75;48.784;9.364;2022-11-20T13:01:55;3.40;;;2.70;;
173;SDS011;75;48.784;9.364;2022-11-20T13:04:38;6.57;;;4.10;;
173;SDS011;75;48.784;9.364;2022-11-20T13:07:10;4.77;;;2.67;;
173;SDS011;75;48.784;9.364;2022-11-20T13:09:40;5.23;;;2.77;;
173;SDS011;75;48.784;9.364;2022-11-20T13:12:10;4.33;;;2.63;;
173;SDS011;75;48.784;9.364;2022-11-20T13:17:35;3.90;;;2.20;;
173;SDS011;75;48.784;9.364;2022-11-20T13:20:06;3.63;;;2.57;;
173;SDS011;75;48.784;9.364;2022-11-20T13:22:44;5.50;;;3.10;;
173;SDS011;75;48.784;9.364;2022-11-20T13:25:31;8.43;;;3.70;;
173;SDS011;75;48.784;9.364;2022-11-20T13:27:59;11.07;;;5.73;;
173;SDS011;75;48.784;9.364;2022-11-20T13:30:27;4.40;;;2.40;;
173;SDS011;75;48.784;9.364;2022-11-20T13:32:56;5.30;;;3.00;;
173;SDS011;75;48.784;9.364;2022-11-20T13:35:30;6.30;;;3.00;;
173;SDS011;75;48.784;9.364;2022-11-20T13:38:05;5.30;;;2.77;;
173;SDS011;75;48.784;9.364;2022-11-20T13:40:33;4.03;;;2.23;;
173;SDS011;75;48.784;9.364;2022-11-20T13:43:02;4.20;;;2.30;;
173;SDS011;75;48.784;9.364;2022-11-20T13:45:31;3.73;;;2.63;;
173;SDS011;75;48.784;9.364;2022-11-20T13:48:03;4.07;;;2.90;;
173;SDS011;75;48.784;9.364;2022-11-20T13:50:38;3.50;;;2.50;;
173;SDS011;75;48.784;9.364;2022-11-20T13:55:36;3.30;;;2.23;;
173;SDS011;75;48.784;9.364;2022-11-20T14:00:41;3.70;;;2.10;;
173;SDS011;75;48.784;9.364;2022-11-20T14:03:17;4.60;;;2.47;;
173;SDS011;75;48.784;9.364;2022-11-20T14:05:51;7.37;;;4.43;;
173;SDS011;75;48.784;9.364;2022-11-20T14:08:23;8.30;;;5.20;;
173;SDS011;75;48.784;9.364;2022-11-20T14:11:01;5.87;;;3.53;;
173;SDS011;75;48.784;9.364;2022-11-20T14:13:28;6.60;;;3.70;;
173;SDS011;75;48.784;9.364;2022-11-20T14:15:56;6.07;;;3.77;;
173;SDS011;75;48.784;9.364;2022-11-20T14:18:24;7.07;;;3.97;;
173;SDS011;75;48.784;9.364;2022-11-20T14:20:52;8.27;;;4.07;;
173;SDS011;75;48.784;9.364;2022-11-20T14:23:23;4.37;;;2.50;;
173;SDS011;75;48.784;9.364;2022-11-20T14:25:52;6.70;;;4.80;;
173;SDS011;75;48.784;9.364;2022-11-20T14:28:29;8.43;;;4.90;;
173;SDS011;75;48.784;9.364;2022-11-20T14:30:57;6.00;;;3.77;;
173;SDS011;75;48.784;9.364;2022-11-20T14:33:25;6.00;;;3.60;;
173;SDS011;75;48.784;9.364;2022-11-20T14:35:55;8.03;;;3.60;;
173;SDS011;75;48.784;9.364;2022-11-20T14:38:27;5.90;;;3.47;;
173;SDS011;75;48.784;9.364;2022-11-20T14:41:05;5.17;;;3.43;;
173;SDS011;75;48.784;9.364;2022-11-20T14:43:33;7.73;;;4.60;;
173;SDS011;75;48.784;9.364;2022-11-20T14:46:05;4.47;;;2.70;;
173;SDS011;75;48.784;9.364;2022-11-20T14:48:38;12.80;;;7.70;;
173;SDS011;75;48.784;9.364;2022-11-20T14:51:08;7.47;;;5.17;;
173;SDS011;75;48.784;9.364;2022-11-20T14:53:36;6.57;;;4.30;;
173;SDS011;75;48.784;9.364;2022-11-20T14:56:03;5.70;;;3.10;;
173;SDS011;75;48.784;9.364;2022-11-20T14:58:31;4.77;;;2.80;;
173;SDS011;75;48.784;9.364;2022-11-20T15:01:02;4.13;;;2.80;;
173;SDS011;75;48.784;9.364;2022-11-20T15:03:32;5.40;;;3.37;;
173;SDS011;75;48.784;9.364;2022-11-20T15:05:59;8.93;;;5.03;;
173;SDS011;75;48.784;9.364;2022-11-20T15:08:27;6.60;;;3.90;;
173;SDS011;75;48.784;9.364;2022-11-20T15:10:55;4.70;;;2.80;;
173;SDS011;75;48.784;9.364;2022-11-20T15:13:36;4.73;;;2.87;;
173;SDS011;75;48.784;9.364;2022-11-20T15:16:08;6.53;;;3.00;;
173;SDS011;75;48.784;9.364;2022-11-20T15:18:40;6.70;;;3.83;;
173;SDS011;75;48.784;9.364;2022-11-20T15:21:12;8.57;;;5.20;;
173;SDS011;75;48.784;9.364;2022-11-20T15:23:40;7.63;;;5.17;;
173;SDS011;75;48.784;9.364;2022-11-20T15:26:08;5.90;;;4.90;;
173;SDS011;75;48.784;9.364;2022-11-20T15:28:42;9.37;;;5.60;;
173;SDS011;75;48.784;9.364;2022-11-20T15:31:11;16.23;;;11.10;;
173;SDS011;75;48.784;9.364;2022-11-20T15:33:38;13.13;;;7.97;;
173;SDS011;75;48.784;9.364;2022-11-20T15:36:08;8.77;;;5.57;;
173;SDS011;75;48.784;9.364;2022-11-20T15:38:35;7.13;;;4.33;;
173;SDS011;75;48.784;9.364;2022-11-20T15:41:03;6.57;;;4.40;;
173;SDS011;75;48.784;9.364;2022-11-20T15:43:30;9.67;;;6.30;;
173;SDS011;75;48.784;9.364;2022-11-20T15:46:05;7.20;;;5.50;;
173;SDS011;75;48.784;9.364;2022-11-20T15:48:36;5.80;;;4.20;;
173;SDS011;75;48.784;9.364;2022-11-20T15:53:38;9.60;;;6.50;;
173;SDS011;75;48.784;9.364;2022-11-20T15:56:09;7.10;;;5.30;;
173;SDS011;75;48.784;9.364;2022-11-20T15:58:38;7.30;;;5.20;;
173;SDS011;75;48.784;9.364;2022-11-20T16:01:05;9.10;;;5.97;;
173;SDS011;75;48.784;9.364;2022-11-20T16:03:33;10.27;;;7.70;;
173;SDS011;75;48.784;9.364;2022-11-20T16:06:00;9.00;;;5.93;;
173;SDS011;75;48.784;9.364;2022-11-20T16:08:27;6.93;;;5.43;;
173;SDS011;75;48.784;9.364;2022-11-20T16:10:55;8.30;;;6.00;;
173;SDS011;75;48.784;9.364;2022-11-20T16:13:22;17.13;;;10.30;;
173;SDS011;75;48.784;9.364;2022-11-20T16:16:11;10.87;;;7.57;;
173;SDS011;75;48.784;9.364;2022-11-20T16:18:41;30.90;;;20.17;;
173;SDS011;75;48.784;9.364;2022-11-20T16:21:10;20.67;;;15.17;;
173;SDS011;75;48.784;9.364;2022-11-20T16:23:39;20.77;;;13.10;;
173;SDS011;75;48.784;9.364;2022-11-20T16:26:11;17.20;;;12.93;;
173;SDS011;75;48.784;9.364;2022-11-20T16:28:38;25.40;;;15.70;;
173;SDS011;75;48.784;9.364;2022-11-20T16:31:12;14.90;;;10.67;;
173;SDS011;75;48.784;9.364;2022-11-20T16:33:40;19.30;;;12.90;;
173;SDS011;75;48.784;9.364;2022-11-20T16:36:11;17.30;;;11.43;;
173;SDS011;75;48.784;9.364;2022-11-20T16:38:38;14.70;;;9.90;;
173;SDS011;75;48.784;9.364;2022-11-20T16:41:06;16.93;;;11.97;;
173;SDS011;75;48.784;9.364;2022-11-20T16:43:46;19.93;;;12.43;;
173;SDS011;75;48.784;9.364;2022-11-20T16:46:14;14.00;;;10.50;;
173;SDS011;75;48.784;9.364;2022-11-20T16:48:42;11.73;;;8.50;;
173;SDS011;75;48.784;9.364;2022-11-20T16:51:10;12.13;;;8.40;;
173;SDS011;75;48.784;9.364;2022-11-20T16:53:38;11.80;;;8.50;;
173;SDS011;75;48.784;9.364;2022-11-20T16:56:10;7.43;;;5.73;;
173;SDS011;75;48.784;9.364;2022-11-20T16:58:38;13.97;;;9.90;;
173;SDS011;75;48.784;9.364;2022-11-20T17:01:08;10.20;;;7.83;;
173;SDS011;75;48.784;9.364;2022-11-20T17:03:37;11.07;;;7.80;;
173;SDS011;75;48.784;9.364;2022-11-20T17:06:09;16.77;;;11.00;;
173;SDS011;75;48.784;9.364;2022-11-20T17:08:37;14.40;;;9.33;;
173;SDS011;75;48.784;9.364;2022-11-20T17:11:08;14.77;;;9.20;;
173;SDS011;75;48.784;9.364;2022-11-20T17:13:35;17.43;;;10.93;;
173;SDS011;75;48.784;9.364;2022-11-20T17:16:04;12.20;;;7.13;;
173;SDS011;75;48.784;9.364;2022-11-20T17:18:32;10.30;;;7.40;;
173;SDS011;75;48.784;9.364;2022-11-20T17:20:59;11.90;;;8.10;;
173;SDS011;75;48.784;9.364;2022-11-20T17:23:31;12.10;;;8.00;;
173;SDS011;75;48.784;9.364;2022-11-20T17:26:05;15.67;;;10.70;;
173;SDS011;75;48.784;9.364;2022-11-20T17:28:33;15.30;;;10.30;;
173;SDS011;75;48.784;9.364;2022-11-20T17:31:01;13.33;;;9.67;;
173;SDS011;75;48.784;9.364;2022-11-20T17:33:29;12.87;;;9.93;;
173;SDS011;75;48.784;9.364;2022-11-20T17:35:56;9.50;;;6.50;;
173;SDS011;75;48.784;9.364;2022-11-20T17:38:24;12.83;;;8.90;;
173;SDS011;75;48.784;9.364;2022-11-20T17:40:51;13.23;;;8.90;;